sensor_id;sensor_type;location;lat;lon;timestamp;pressure;altitude;pressure_sealevel;temperature;humidity
57894;BME280;43710;47.460;19.034;2023-09-19T03:59:42;99974.28;;;22.31;75.65
57894;BME280;43710;47.460;19.034;2023-09-19T04:02:48;99974.28;;;22.31;75.65
57894;BME280;43710;47.460;19.034;2023-09-19T04:05:51;99979.00;;;21.85;85.33
57894;BME280;43710;47.460;19.034;2023-09-19T04:08:53;99977.75;;;21.78;76.83
57894;BME280;43710;47.460;19.034;2023-09-19T04:11:56;99980.91;;;21.80;77.07
57894;BME280;43710;47.460;19.034;2023-09-19T04:14:59;99978.72;;;21.90;80.78
57894;BME280;43710;47.460;19.034;2023-09-19T04:18:01;99985.78;;;21.94;76.81
57894;BME280;43710;47.460;19.034;2023-09-19T04:21:05;99980.03;;;21.99;75.98
57894;BME280;43710;47.460;19.034;2023-09-19T04:24:08;99984.03;;;22.05;76.15
57894;BME280;43710;47.460;19.034;2023-09-19T04:27:11;99992.22;;;22.05;75.58
57894;BME280;43710;47.460;19.034;2023-09-19T04:30:17;99987.13;;;22.04;77.11
57894;BME280;43710;47.460;19.034;2023-09-19T04:33:19;99994.22;;;22.09;80.84
57894;BME280;43710;47.460;19.034;2023-09-19T04:36:21;100003.13;;;22.05;79.62
57894;BME280;43710;47.460;19.034;2023-09-19T04:39:37;100010.59;;;22.09;76.18
57894;BME280;43710;47.460;19.034;2023-09-19T04:42:40;100009.84;;;22.12;76.88
57894;BME280;43710;47.460;19.034;2023-09-19T04:45:42;100004.75;;;22.10;79.91
57894;BME280;43710;47.460;19.034;2023-09-19T04:48:45;100020.66;;;22.04;75.87
57894;BME280;43710;47.460;19.034;2023-09-19T04:51:47;100024.13;;;22.01;76.95
57894;BME280;43710;47.460;19.034;2023-09-19T04:54:50;100024.53;;;22.03;76.71
57894;BME280;43710;47.460;19.034;2023-09-19T04:57:52;100031.16;;;22.02;75.86
57894;BME280;43710;47.460;19.034;2023-09-19T05:00:55;100027.16;;;21.96;75.92
57894;BME280;43710;47.460;19.034;2023-09-19T05:03:58;100025.09;;;21.90;74.70
57894;BME280;43710;47.460;19.034;2023-09-19T05:07:00;100036.25;;;21.81;74.68
57894;BME280;43710;47.460;19.034;2023-09-19T05:10:05;100042.16;;;21.83;75.52
57894;BME280;43710;47.460;19.034;2023-09-19T05:13:10;100046.28;;;21.73;75.24
57894;BME280;43710;47.460;19.034;2023-09-19T05:16:14;100047.78;;;21.71;75.84
57894;BME280;43710;47.460;19.034;2023-09-19T05:19:17;100057.06;;;21.66;76.53
57894;BME280;43710;47.460;19.034;2023-09-19T05:22:20;100063.19;;;21.60;76.42
57894;BME280;43710;47.460;19.034;2023-09-19T05:25:22;100062.19;;;21.48;76.46
57894;BME280;43710;47.460;19.034;2023-09-19T05:28:24;100079.12;;;21.38;75.95
57894;BME280;43710;47.460;19.034;2023-09-19T05:31:27;100081.84;;;21.38;76.32
57894;BME280;43710;47.460;19.034;2023-09-19T05:34:33;100093.09;;;21.17;76.60
57894;BME280;43710;47.460;19.034;2023-09-19T05:37:35;100089.59;;;21.17;76.65
57894;BME280;43710;47.460;19.034;2023-09-19T05:40:38;100078.97;;;21.11;76.91
57894;BME280;43710;47.460;19.034;2023-09-19T05:43:44;100080.56;;;21.12;77.20
57894;BME280;43710;47.460;19.034;2023-09-19T05:46:46;100080.38;;;21.05;77.73
57894;BME280;43710;47.460;19.034;2023-09-19T05:49:50;100078.03;;;21.04;76.71
57894;BME280;43710;47.460;19.034;2023-09-19T05:52:56;100071.81;;;21.03;76.70
57894;BME280;43710;47.460;19.034;2023-09-19T05:55:59;100087.00;;;21.04;76.60
57894;BME280;43710;47.460;19.034;2023-09-19T05:59:04;100094.09;;;21.09;77.26
57894;BME280;43710;47.460;19.034;2023-09-19T06:02:07;100093.03;;;21.14;76.39
57894;BME280;43710;47.460;19.034;2023-09-19T06:05:12;100089.44;;;21.09;75.85
57894;BME280;43710;47.460;19.034;2023-09-19T06:08:14;100086.44;;;21.15;76.76
57894;BME280;43710;47.460;19.034;2023-09-19T06:11:18;100092.19;;;21.09;75.54
57894;BME280;43710;47.460;19.034;2023-09-19T06:14:22;100094.09;;;21.09;76.62
57894;BME280;43710;47.460;19.034;2023-09-19T06:17:27;100093.75;;;21.10;75.25
57894;BME280;43710;47.460;19.034;2023-09-19T06:20:30;100097.44;;;21.02;76.22
57894;BME280;43710;47.460;19.034;2023-09-19T06:23:34;100097.44;;;21.02;77.63
57894;BME280;43710;47.460;19.034;2023-09-19T06:26:37;100109.31;;;21.10;76.12
57894;BME280;43710;47.460;19.034;2023-09-19T06:29:40;100117.97;;;20.96;76.28
57894;BME280;43710;47.460;19.034;2023-09-19T06:32:42;100120.56;;;21.08;76.24
57894;BME280;43710;47.460;19.034;2023-09-19T06:35:46;100114.13;;;21.17;79.38
57894;BME280;43710;47.460;19.034;2023-09-19T06:38:49;100119.34;;;21.25;75.55
57894;BME280;43710;47.460;19.034;2023-09-19T06:41:53;100113.44;;;21.39;79.70
57894;BME280;43710;47.460;19.034;2023-09-19T06:44:56;100116.50;;;21.57;80.67
57894;BME280;43710;47.460;19.034;2023-09-19T06:47:59;100128.78;;;21.47;74.15
57894;BME280;43710;47.460;19.034;2023-09-19T06:51:02;100122.03;;;21.41;75.76
57894;BME280;43710;47.460;19.034;2023-09-19T06:54:07;100128.69;;;21.24;75.17
57894;BME280;43710;47.460;19.034;2023-09-19T06:57:10;100137.56;;;21.21;78.26
57894;BME280;43710;47.460;19.034;2023-09-19T07:00:13;100140.53;;;21.12;78.48
57894;BME280;43710;47.460;19.034;2023-09-19T07:03:24;100151.44;;;21.12;77.95
57894;BME280;43710;47.460;19.034;2023-09-19T07:06:29;100152.75;;;21.38;80.65
57894;BME280;43710;47.460;19.034;2023-09-19T07:09:31;100168.78;;;21.24;79.12
57894;BME280;43710;47.460;19.034;2023-09-19T07:12:33;100165.47;;;21.15;80.25
57894;BME280;43710;47.460;19.034;2023-09-19T07:15:37;100178.31;;;21.14;82.16
57894;BME280;43710;47.460;19.034;2023-09-19T07:18:49;100180.25;;;21.14;85.80
57894;BME280;43710;47.460;19.034;2023-09-19T07:21:51;100184.31;;;21.04;88.69
57894;BME280;43710;47.460;19.034;2023-09-19T07:24:54;100183.13;;;20.85;85.56
57894;BME280;43710;47.460;19.034;2023-09-19T07:27:58;100184.09;;;20.77;87.96
57894;BME280;43710;47.460;19.034;2023-09-19T07:31:03;100178.03;;;20.84;90.18
57894;BME280;43710;47.460;19.034;2023-09-19T07:34:07;100187.78;;;20.85;90.78
57894;BME280;43710;47.460;19.034;2023-09-19T07:37:11;100176.56;;;20.71;86.72
57894;BME280;43710;47.460;19.034;2023-09-19T07:40:16;100187.78;;;20.69;85.98
57894;BME280;43710;47.460;19.034;2023-09-19T07:43:18;100196.31;;;20.68;88.62
57894;BME280;43710;47.460;19.034;2023-09-19T07:46:20;100198.16;;;20.48;85.45
57894;BME280;43710;47.460;19.034;2023-09-19T07:49:24;100203.72;;;20.67;90.33
57894;BME280;43710;47.460;19.034;2023-09-19T07:52:27;100211.44;;;20.65;92.98
57894;BME280;43710;47.460;19.034;2023-09-19T07:55:30;100218.44;;;20.82;91.05
57894;BME280;43710;47.460;19.034;2023-09-19T07:58:33;100220.13;;;20.86;90.18
57894;BME280;43710;47.460;19.034;2023-09-19T08:01:36;100227.69;;;20.77;91.64
57894;BME280;43710;47.460;19.034;2023-09-19T08:04:39;100242.19;;;20.97;93.41
57894;BME280;43710;47.460;19.034;2023-09-19T08:07:44;100243.66;;;20.95;93.92
57894;BME280;43710;47.460;19.034;2023-09-19T08:10:52;100244.88;;;21.13;96.62
57894;BME280;43710;47.460;19.034;2023-09-19T08:13:55;100257.09;;;21.19;97.23
57894;BME280;43710;47.460;19.034;2023-09-19T08:16:58;100255.56;;;21.22;94.43
57894;BME280;43710;47.460;19.034;2023-09-19T08:20:01;100257.53;;;21.21;94.17
57894;BME280;43710;47.460;19.034;2023-09-19T08:23:07;100272.22;;;21.17;97.60
57894;BME280;43710;47.460;19.034;2023-09-19T08:26:10;100269.25;;;20.90;93.64
57894;BME280;43710;47.460;19.034;2023-09-19T08:29:12;100274.97;;;21.01;92.54
57894;BME280;43710;47.460;19.034;2023-09-19T08:32:15;100271.53;;;20.88;90.62
57894;BME280;43710;47.460;19.034;2023-09-19T08:35:17;100269.88;;;20.83;89.93
57894;BME280;43710;47.460;19.034;2023-09-19T08:38:19;100283.56;;;20.71;98.45
57894;BME280;43710;47.460;19.034;2023-09-19T08:41:22;100283.91;;;20.85;98.31
57894;BME280;43710;47.460;19.034;2023-09-19T08:44:25;100302.91;;;20.82;91.60
57894;BME280;43710;47.460;19.034;2023-09-19T08:47:53;100301.06;;;20.86;97.04
57894;BME280;43710;47.460;19.034;2023-09-19T08:51:07;100321.75;;;21.03;93.07
57894;BME280;43710;47.460;19.034;2023-09-19T08:54:24;100333.16;;;20.77;89.14
57894;BME280;43710;47.460;19.034;2023-09-19T08:57:29;100336.75;;;20.81;93.22
57894;BME280;43710;47.460;19.034;2023-09-19T09:00:37;100336.31;;;20.79;92.95
57894;BME280;43710;47.460;19.034;2023-09-19T09:03:45;100344.91;;;20.65;96.63
57894;BME280;43710;47.460;19.034;2023-09-19T09:06:51;100343.75;;;20.66;95.18
57894;BME280;43710;47.460;19.034;2023-09-19T09:09:55;100335.25;;;20.68;99.00
57894;BME280;43710;47.460;19.034;2023-09-19T09:12:58;100326.62;;;20.65;97.14
57894;BME280;43710;47.460;19.034;2023-09-19T09:16:00;100315.28;;;20.63;97.41
57894;BME280;43710;47.460;19.034;2023-09-19T09:19:04;100288.16;;;20.83;100.00
57894;BME280;43710;47.460;19.034;2023-09-19T09:22:08;100278.56;;;20.89;100.00
57894;BME280;43710;47.460;19.034;2023-09-19T09:25:11;100270.66;;;20.84;100.00
57894;BME280;43710;47.460;19.034;2023-09-19T09:28:19;100262.56;;;20.87;99.93
57894;BME280;43710;47.460;19.034;2023-09-19T09:31:25;100254.41;;;20.87;99.95
57894;BME280;43710;47.460;19.034;2023-09-19T09:34:33;100241.13;;;20.86;100.00
57894;BME280;43710;47.460;19.034;2023-09-19T09:37:36;100241.56;;;20.88;98.00
57894;BME280;43710;47.460;19.034;2023-09-19T09:40:49;100251.16;;;20.82;97.74
57894;BME280;43710;47.460;19.034;2023-09-19T09:44:20;100258.38;;;20.90;97.96
57894;BME280;43710;47.460;19.034;2023-09-19T09:47:44;100277.25;;;20.83;97.55
57894;BME280;43710;47.460;19.034;2023-09-19T09:51:00;100298.00;;;20.87;100.00
57894;BME280;43710;47.460;19.034;2023-09-19T09:54:16;100308.81;;;20.84;100.00
57894;BME280;43710;47.460;19.034;2023-09-19T09:57:20;100311.25;;;20.89;100.00
57894;BME280;43710;47.460;19.034;2023-09-19T10:00:26;100298.88;;;20.92;100.00
57894;BME280;43710;47.460;19.034;2023-09-19T10:03:39;100302.13;;;20.97;100.00
57894;BME280;43710;47.460;19.034;2023-09-19T10:06:42;100295.09;;;20.96;99.16
57894;BME280;43710;47.460;19.034;2023-09-19T10:09:50;100291.22;;;20.97;95.69
57894;BME280;43710;47.460;19.034;2023-09-19T10:12:55;100298.25;;;20.98;99.76
57894;BME280;43710;47.460;19.034;2023-09-19T10:16:06;100296.31;;;20.99;100.00
57894;BME280;43710;47.460;19.034;2023-09-19T10:19:16;100297.38;;;21.10;100.00
57894;BME280;43710;47.460;19.034;2023-09-19T10:22:26;100305.03;;;21.04;95.11
57894;BME280;43710;47.460;19.034;2023-09-19T10:25:29;100296.94;;;21.08;96.92
57894;BME280;43710;47.460;19.034;2023-09-19T10:28:36;100297.00;;;21.11;98.87
57894;BME280;43710;47.460;19.034;2023-09-19T10:31:42;100310.31;;;21.13;99.14
57894;BME280;43710;47.460;19.034;2023-09-19T10:34:50;100320.91;;;21.18;98.13
57894;BME280;43710;47.460;19.034;2023-09-19T10:37:59;100318.56;;;21.17;95.45
57894;BME280;43710;47.460;19.034;2023-09-19T10:41:04;100316.97;;;21.16;97.14
57894;BME280;43710;47.460;19.034;2023-09-19T10:44:07;100317.41;;;21.18;96.23
57894;BME280;43710;47.460;19.034;2023-09-19T10:47:11;100319.34;;;21.17;94.74
57894;BME280;43710;47.460;19.034;2023-09-19T10:50:21;100323.03;;;21.09;92.31
57894;BME280;43710;47.460;19.034;2023-09-19T10:53:28;100320.06;;;21.14;95.92
57894;BME280;43710;47.460;19.034;2023-09-19T10:56:36;100325.50;;;21.14;96.74
57894;BME280;43710;47.460;19.034;2023-09-19T11:00:00;100322.88;;;21.18;95.19
57894;BME280;43710;47.460;19.034;2023-09-19T11:06:18;100330.41;;;21.24;92.12
57894;BME280;43710;47.460;19.034;2023-09-19T11:09:21;100342.28;;;21.32;94.08
57894;BME280;43710;47.460;19.034;2023-09-19T11:19:01;100338.84;;;21.51;91.08
57894;BME280;43710;47.460;19.034;2023-09-19T11:22:09;100341.41;;;21.60;93.03
57894;BME280;43710;47.460;19.034;2023-09-19T11:28:32;100334.25;;;21.71;87.05
57894;BME280;43710;47.460;19.034;2023-09-19T11:31:44;100342.16;;;21.76;86.34
57894;BME280;43710;47.460;19.034;2023-09-19T11:34:48;100330.22;;;21.84;82.53
57894;BME280;43710;47.460;19.034;2023-09-19T11:41:36;100336.00;;;21.79;77.43
57894;BME280;43710;47.460;19.034;2023-09-19T11:44:39;100328.59;;;21.79;78.60
57894;BME280;43710;47.460;19.034;2023-09-19T11:47:45;100321.81;;;21.73;77.48
57894;BME280;43710;47.460;19.034;2023-09-19T11:50:48;100315.66;;;21.76;76.57
57894;BME280;43710;47.460;19.034;2023-09-19T11:53:54;100312.47;;;21.74;73.96
57894;BME280;43710;47.460;19.034;2023-09-19T11:57:28;100313.72;;;21.77;74.88
57894;BME280;43710;47.460;19.034;2023-09-19T12:00:32;100313.94;;;21.88;75.30
57894;BME280;43710;47.460;19.034;2023-09-19T12:03:38;100306.34;;;21.97;76.59
57894;BME280;43710;47.460;19.034;2023-09-19T12:06:56;100301.59;;;22.13;78.01
57894;BME280;43710;47.460;19.034;2023-09-19T12:10:03;100314.75;;;22.27;75.90
57894;BME280;43710;47.460;19.034;2023-09-19T12:13:06;100300.81;;;22.32;75.27
57894;BME280;43710;47.460;19.034;2023-09-19T12:16:17;100302.75;;;22.32;72.96
57894;BME280;43710;47.460;19.034;2023-09-19T12:19:24;100302.09;;;22.38;73.96
57894;BME280;43710;47.460;19.034;2023-09-19T12:22:39;100301.31;;;22.38;75.08
57894;BME280;43710;47.460;19.034;2023-09-19T12:25:42;100302.78;;;22.55;74.09
57894;BME280;43710;47.460;19.034;2023-09-19T12:28:49;100306.72;;;22.57;71.63
57894;BME280;43710;47.460;19.034;2023-09-19T12:31:56;100306.50;;;22.66;72.16
57894;BME280;43710;47.460;19.034;2023-09-19T12:35:02;100323.31;;;22.68;70.83
57894;BME280;43710;47.460;19.034;2023-09-19T12:38:09;100327.66;;;22.69;70.83
57894;BME280;43710;47.460;19.034;2023-09-19T12:41:12;100321.91;;;22.55;70.06
57894;BME280;43710;47.460;19.034;2023-09-19T12:44:15;100322.72;;;22.55;71.15
57894;BME280;43710;47.460;19.034;2023-09-19T12:47:18;100329.31;;;22.54;70.91
57894;BME280;43710;47.460;19.034;2023-09-19T12:50:26;100328.31;;;22.62;70.90
57894;BME280;43710;47.460;19.034;2023-09-19T12:53:33;100323.69;;;22.66;70.30
57894;BME280;43710;47.460;19.034;2023-09-19T12:56:42;100318.22;;;22.66;69.30
57894;BME280;43710;47.460;19.034;2023-09-19T12:59:52;100328.78;;;22.68;69.83
57894;BME280;43710;47.460;19.034;2023-09-19T13:03:18;100315.53;;;22.70;69.52
57894;BME280;43710;47.460;19.034;2023-09-19T13:06:36;100314.87;;;22.77;70.91
57894;BME280;43710;47.460;19.034;2023-09-19T13:10:03;100318.16;;;22.86;69.46
57894;BME280;43710;47.460;19.034;2023-09-19T13:13:23;100320.78;;;22.79;67.18
57894;BME280;43710;47.460;19.034;2023-09-19T13:16:29;100320.28;;;22.73;67.52
57894;BME280;43710;47.460;19.034;2023-09-19T13:19:47;100325.47;;;22.78;68.07
57894;BME280;43710;47.460;19.034;2023-09-19T13:22:57;100322.34;;;22.80;68.23
57894;BME280;43710;47.460;19.034;2023-09-19T13:26:09;100324.19;;;22.72;68.85
57894;BME280;43710;47.460;19.034;2023-09-19T13:29:12;100332.06;;;22.77;68.06
57894;BME280;43710;47.460;19.034;2023-09-19T13:32:16;100324.31;;;22.79;68.38
57894;BME280;43710;47.460;19.034;2023-09-19T13:35:19;100324.53;;;22.70;68.49
57894;BME280;43710;47.460;19.034;2023-09-19T13:38:22;100336.75;;;22.77;67.63
57894;BME280;43710;47.460;19.034;2023-09-19T13:41:24;100333.44;;;22.67;69.33
57894;BME280;43710;47.460;19.034;2023-09-19T13:44:28;100335.41;;;22.67;68.00
57894;BME280;43710;47.460;19.034;2023-09-19T13:47:32;100335.06;;;22.68;67.87
57894;BME280;43710;47.460;19.034;2023-09-19T13:50:35;100348.41;;;22.73;67.83
57894;BME280;43710;47.460;19.034;2023-09-19T13:53:38;100342.28;;;22.80;68.03
57894;BME280;43710;47.460;19.034;2023-09-19T13:56:41;100349.09;;;22.90;67.22
57894;BME280;43710;47.460;19.034;2023-09-19T13:59:43;100348.38;;;22.93;66.94
57894;BME280;43710;47.460;19.034;2023-09-19T14:02:45;100355.47;;;22.97;67.92
57894;BME280;43710;47.460;19.034;2023-09-19T14:05:48;100346.50;;;22.97;66.21
57894;BME280;43710;47.460;19.034;2023-09-19T14:08:53;100346.16;;;22.98;67.09
57894;BME280;43710;47.460;19.034;2023-09-19T14:11:55;100355.47;;;22.97;66.33
57894;BME280;43710;47.460;19.034;2023-09-19T14:14:58;100356.66;;;22.96;66.00
57894;BME280;43710;47.460;19.034;2023-09-19T14:18:00;100354.09;;;22.88;66.54
57894;BME280;43710;47.460;19.034;2023-09-19T14:21:06;100354.50;;;22.86;67.39
57894;BME280;43710;47.460;19.034;2023-09-19T14:24:10;100347.44;;;22.85;67.71
57894;BME280;43710;47.460;19.034;2023-09-19T14:27:14;100345.13;;;22.87;67.48
57894;BME280;43710;47.460;19.034;2023-09-19T14:30:17;100355.72;;;22.89;67.84
57894;BME280;43710;47.460;19.034;2023-09-19T14:33:19;100349.75;;;22.83;67.05
57894;BME280;43710;47.460;19.034;2023-09-19T14:36:22;100353.66;;;22.82;67.08
57894;BME280;43710;47.460;19.034;2023-09-19T14:39:24;100342.78;;;22.86;67.05
57894;BME280;43710;47.460;19.034;2023-09-19T14:42:27;100343.62;;;22.90;68.37
57894;BME280;43710;47.460;19.034;2023-09-19T14:45:29;100337.50;;;22.96;68.01
57894;BME280;43710;47.460;19.034;2023-09-19T14:48:33;100340.41;;;23.07;67.29
57894;BME280;43710;47.460;19.034;2023-09-19T14:51:37;100342.75;;;23.05;66.33
57894;BME280;43710;47.460;19.034;2023-09-19T14:54:42;100341.13;;;23.04;64.35
57894;BME280;43710;47.460;19.034;2023-09-19T14:57:48;100336.91;;;23.07;64.40
57894;BME280;43710;47.460;19.034;2023-09-19T15:00:51;100338.47;;;23.08;63.77
57894;BME280;43710;47.460;19.034;2023-09-19T15:03:55;100342.31;;;23.03;62.13
57894;BME280;43710;47.460;19.034;2023-09-19T15:06:58;100346.56;;;23.01;62.26
57894;BME280;43710;47.460;19.034;2023-09-19T15:10:00;100355.47;;;22.97;62.86
